Pagina principale
METAR-TAF:

METAR-TAF

Aeroporti :

Frontone, Italia

latitudine: 43-31N, longitudine: 012-44E, altezza: 570 m

Osservazione

Il bollettino è stato emesso 38 minuti fa, alle 12:55 UTC
Vento 13 kt da ovest/sud-ovest
Temperature 17°C
Umidità 82%
Pressione 1001 hPa
Visibilità 10 km o più
Poco nuvoloso ad un'altezza di 2900 ft
Poco nuvoloso ad un'altezza di 3200 ft, Cumulo congesto.

METAR: LIVF 271255Z 25013KT 9999 FEW029 FEW032TCU 17/14 Q1001

Ora: 15:33 (13:33 UTC)


TAF: mancante

Osservazioni e previsioni meteorologiche di più di 4000 aeroporti (messaggi METAR e TAF).

Le stazioni disponibili sono rappresentate dai dischi gialli e rossi sulla carta.

Puntare il mouse per vedere il nome della stazione.

Clicca sopra per visualizzare le osservazioni e previsioni meteorologiche.

Per cambiare la mappa : fare clic sui pulsanti verdi con una croce nera per ingrandire, il pulsante verde con un trattino per diminuire, o sulla freccia verde per le mappe adiacenti.


METAR-TAF: